Buzau, Romania
Current Conditions -  °F | °C
As of 4:00 PM on Monday 20 Oct 2014 (Local Time) from LRBO Reporting Station
Scattered Clouds Scattered Clouds  
Wind Chill: 70°   Ceiling: Unl
Heat Index: 70°   Visibility: 6mi
Dew Point: 48°   Wind: 14mph
Humidity: 46%   Direction: 230°SW
Pressure: 29.97"   Gusts: 25mph
Location:  45.15°N, 26.82°E
Report Text: LRBO 201300Z 23012G22KT 9999 SCT200 21/09 Q1015 BLU BLU
Loading
Personal Weather Stations






























Interactive Weather Map
Tropical Storm Tracking
New forecast layout! Learn more

10-Day Weather Forecast

Advertisements
Track Severe Weather on mobile